Newport, Rhode Island
Current Conditions -  °F | °C
As of 6:53 PM on Saturday 25 Oct 2014 (Local Time) from KUUU Reporting Station
Clear Clear  
Wind Chill: 58°   Ceiling: Unl
Heat Index: 58°   Visibility: 10mi
Dew Point: 47°   Wind: 6mph
Humidity: 67%   Direction: NA
Pressure: 29.62"   Gusts: NA
Location:  41.49°N, 71.31°W
Report Text: KUUU 252253Z AUTO VRB05KT 10SM CLR 14/08 A2962 RMK AO2 SLP031 T01440083
Loading
Personal Weather Stations






























Interactive Weather Map
Tropical Storm Tracking
New forecast layout! Learn more

10-Day Weather Forecast

Advertisements
Track Severe Weather on mobile